YLOD weather

Longwood Airport
Victoria, Australia

Public forecast

Using degrees Celsius for public forecast. Weather courtesy of forecast.io.

METAR (pilot weather report)

Closest report is Wangaratta Airport, 47.2 nm (87.5 km) ENE. Retrieved 2019/03/19 20:00 UTC (45 minutes ago):

YWGT 192000Z AUTO 00000KT 9999 // ////// 15/13 Q1013

TAF (pilot weather forecast)

Closest forecast is Wangaratta Airport, 47.2 nm (87.5 km) ENE. Retrieved 2019/03/19 19:03 UTC (2 hours ago):

TAF YWGT 191800Z 1919/2008 VRB03KT CAVOK FM200200 22008KT CAVOK